Terminal Aerodrome Forecast
Issued by NWS Sterling, VA

Current Version | Previous Version | Text Only | Print | Product List | Glossary Off
Versions: 1 2 3 4 5 6 7 8 9 10 11 12 13 14 15 16 17 18 19 20 21 22 23 24 25 26 27 28

000
FTUS41 KLWX 221138
TAFDCA
TAF
KDCA 221138Z 2212/2312 30010KT P6SM SKC
     FM221400 30010G18KT P6SM FEW250
     FM221800 27010G22KT P6SM FEW250
     FM230000 30009KT P6SM SCT080
     FM230900 33005KT P6SM SKC=

USA.gov is the U.S. government's official web portal to all federal, state and local government web resources and services.